Flight Track Log - Related Links

Times and Time Zones

All times are in EDT time to prevent confusion due to time zone crossing. See the EJA396 flight status page for this flight to view local times or setup timezone preferences in your user account.

Time Position Orientation Groundspeed Altitude Reporting Facility
EDT Latitude Longitude Course Direction KTS MPH feet Rate Location/Type
Thu 12:44:49 AM 28.4986 -81.1211 340° North 143 165 41,000  Level Jacksonville Center
Thu 12:45:49 AM 28.6161 -81.1686 340° North 306 352 41,000  Level Jacksonville Center
Thu 12:46:49 AM 28.7375 -81.1900 351° North 381 438 41,000  Level Jacksonville Center
Thu 12:47:49 AM 28.8608 -81.2094 352° North 422 486 41,000  Level Jacksonville Center
Thu 12:48:49 AM 28.9864 -81.2286 352° North 446 513 41,000  Level Jacksonville Center
Thu 12:49:49 AM 29.1078 -81.2456 353° North 446 513 41,000  Level Jacksonville Center
Thu 12:50:49 AM 29.2292 -81.2672 351° North 446 513 41,000  Level Jacksonville Center
Thu 12:51:49 AM 29.3525 -81.2844 353° North 446 513 41,000  Level Jacksonville Center
Thu 12:52:49 AM 29.4864 -81.3061 352° North 446 513 41,000  Level Jacksonville Center
Thu 12:53:49 AM 29.6078 -81.3281 351° North 440 506 41,000  Level Jacksonville Center
Thu 12:54:49 AM 29.7331 -81.3450 353° North 445 512 41,000  Level Jacksonville Center
Thu 12:55:49 AM 29.8586 -81.3647 352° North 450 518 41,000  Level Jacksonville Center
Thu 12:56:49 AM 29.9819 -81.3842 352° North 445 512 41,000  Level Jacksonville Center
Thu 12:57:49 AM 30.1075 -81.4039 352° North 450 518 41,000  Level Jacksonville Center
Thu 12:58:49 AM 30.2331 -81.4236 352° North 450 518 41,000  Level Jacksonville Center
Thu 12:59:49 AM 30.3586 -81.4433 352° North 450 518 41,000  Level Jacksonville Center
Thu 01:00:49 AM 30.4819 -81.4656 351° North 450 518 41,000  Level Jacksonville Center
Thu 01:01:49 AM 30.6075 -81.4853 352° North 450 518 41,000  Level Jacksonville Center
Thu 01:02:49 AM 30.7328 -81.5053 352° North 445 512 41,000  Level Jacksonville Center
Thu 01:03:49 AM 30.8606 -81.5278 351° North 445 512 41,000  Level Jacksonville Center
Thu 01:04:49 AM 30.9839 -81.5478 352° North 445 512 41,000  Level Jacksonville Center
Thu 01:05:49 AM 31.1114 -81.5700 352° North 445 512 41,000  Level Jacksonville Center
Thu 01:06:49 AM 31.2369 -81.5903 352° North 453 521 41,000  Level Jacksonville Center
Thu 01:07:49 AM 31.3561 -81.6106 352° North 446 513 41,000  Level Jacksonville Center
Thu 01:08:49 AM 31.4839 -81.6306 352° North 452 520 41,000  Level Jacksonville Center
Thu 01:09:49 AM 31.6114 -81.6533 351° North 457 526 41,000  Level Jacksonville Center
Thu 01:10:49 AM 31.7242 -81.6714 352° North 462 532 41,000  Level Jacksonville Center
Thu 01:12:31 AM 31.9500 -81.7086 352° North 491 565 41,000  Level Atlanta Center
Thu 01:13:31 AM 32.0778 -81.7322 351° North 467 537 41,000  Level Atlanta Center
Thu 01:14:31 AM 32.2011 -81.7511 353° North 460 529 41,000  Level Atlanta Center
Thu 01:15:31 AM 32.3164 -81.7703 352° North 460 529 41,000  Level Atlanta Center
Thu 01:16:31 AM 32.4419 -81.7892 353° North 455 524 41,000  Level Atlanta Center
Thu 01:17:31 AM 32.5675 -81.8133 351° North 455 524 41,000 -350 Level Atlanta Center
Thu 01:18:31 AM 32.7078 -81.8344 353° North 455 524 40,300 -1,200 Descending Atlanta Center
Thu 01:19:31 AM 32.8356 -81.8583 351° North 460 529 38,600 -1,850 Descending Atlanta Center
Thu 01:20:31 AM 32.9614 -81.8825 351° North 460 529 36,600 -2,000 Descending Atlanta Center
Thu 01:21:31 AM 33.0911 -81.9017 353° North 465 535 34,600 -2,050 Descending Atlanta Center
Thu 01:22:31 AM 33.2167 -81.9233 352° North 465 535 32,500 -2,250 Descending Atlanta Center
Thu 01:23:31 AM 33.3486 -81.9475 351° North 465 535 30,100 -2,350 Descending Atlanta Center
Thu 01:24:31 AM 33.4783 -81.9692 352° North 465 535 27,800 -2,300 Descending Atlanta Center
Thu 01:25:31 AM 33.6061 -81.9911 352° North 465 535 25,500 -2,300 Descending Atlanta Center
Thu 01:26:31 AM 33.7294 -82.0131 352° North 460 529 23,200 -2,200 Descending Atlanta Center
Thu 01:27:31 AM 33.8508 -82.0328 352° North 454 522 21,100 -2,100 Descending Atlanta Center
Thu 01:28:31 AM 33.9536 -82.0528 351° North 430 495 19,000 -2,000 Descending Atlanta Center
Thu 01:29:31 AM 34.0622 -82.0728 351° North 410 472 17,100 -2,000 Descending Atlanta Center
Thu 01:30:31 AM 34.1733 -82.0903 353° North 405 466 15,000 -2,000 Descending Atlanta Center
Thu 01:31:31 AM 34.2781 -82.1106 351° North 392 451 13,100 -1,850 Descending Atlanta Center
Thu 01:32:31 AM 34.3764 -82.1286 351° North 374 430 11,300 -1,850 Descending Atlanta Center
Thu 01:33:31 AM 34.4683 -82.1442 352° North 351 404 9,400 -1,700 Descending Atlanta Center
Thu 01:34:31 AM 34.5478 -82.1575 352° North 314 361 7,900 -1,500 Descending Atlanta Center
Thu 01:36:00 AM 34.8027 -82.2000 North  Level FlightAware Approximate
Thu 01:43:00 AM 34.8833 -82.2167 338° Northwest  Level FlightAware Approximate
Thu 01:44:00 AM 34.8957 -82.2189 338° Northwest  Level Estimated
Thu 01:45:00 AM 34.8957 -82.2189 338° Northwest  Level Estimated
Thu 01:46:00 AM 34.8957 -82.2189 338° Northwest  Level Estimated
Thu 01:47:00 AM 34.8957 -82.2189 338° Northwest  Level Estimated
Thu 01:48:00 AM 34.8957 -82.2189 338° Northwest  Level Estimated
Thu 01:49:00 AM 34.8957 -82.2189 338° Northwest  Level Estimated
Thu 01:50:00 AM 34.8957 -82.2189 338° Northwest  Level Estimated
Thu 01:51:00 AM 34.8957 -82.2189 338° Northwest  Level Estimated
Thu 01:52:00 AM 34.8957 -82.2189 338° Northwest  Level Estimated

Login

Don't have an account? Register now (free) for customized features, flight alerts, and more!